sensor_id;sensor_type;location;lat;lon;timestamp;P1;durP1;ratioP1;P2;durP2;ratioP2
73150;SDS011;61354;50.758;6.106;2023-06-24T00:02:12;7.70;;;4.03;;
73150;SDS011;61354;50.758;6.106;2023-06-24T00:04:38;6.88;;;4.30;;
73150;SDS011;61354;50.758;6.106;2023-06-24T00:07:04;7.93;;;4.30;;
73150;SDS011;61354;50.758;6.106;2023-06-24T00:09:30;7.78;;;4.45;;
73150;SDS011;61354;50.758;6.106;2023-06-24T00:11:56;6.15;;;4.13;;
73150;SDS011;61354;50.758;6.106;2023-06-24T00:14:24;6.63;;;4.13;;
73150;SDS011;61354;50.758;6.106;2023-06-24T00:16:51;6.45;;;3.85;;
73150;SDS011;61354;50.758;6.106;2023-06-24T00:19:21;6.85;;;4.38;;
73150;SDS011;61354;50.758;6.106;2023-06-24T00:21:48;7.45;;;4.15;;
73150;SDS011;61354;50.758;6.106;2023-06-24T00:24:16;7.85;;;4.00;;
73150;SDS011;61354;50.758;6.106;2023-06-24T00:26:45;6.75;;;4.13;;
73150;SDS011;61354;50.758;6.106;2023-06-24T00:29:12;6.47;;;3.65;;
73150;SDS011;61354;50.758;6.106;2023-06-24T00:31:38;6.30;;;3.83;;
73150;SDS011;61354;50.758;6.106;2023-06-24T00:34:03;5.90;;;3.58;;
73150;SDS011;61354;50.758;6.106;2023-06-24T00:36:29;7.50;;;4.32;;
73150;SDS011;61354;50.758;6.106;2023-06-24T00:38:57;5.95;;;3.60;;
73150;SDS011;61354;50.758;6.106;2023-06-24T00:41:28;6.07;;;3.65;;
73150;SDS011;61354;50.758;6.106;2023-06-24T00:43:54;7.30;;;4.22;;
73150;SDS011;61354;50.758;6.106;2023-06-24T00:46:23;5.38;;;3.53;;
73150;SDS011;61354;50.758;6.106;2023-06-24T00:48:52;8.27;;;4.18;;
73150;SDS011;61354;50.758;6.106;2023-06-24T00:51:22;6.30;;;4.10;;
73150;SDS011;61354;50.758;6.106;2023-06-24T00:53:52;8.25;;;4.40;;
73150;SDS011;61354;50.758;6.106;2023-06-24T00:56:18;11.23;;;4.18;;
73150;SDS011;61354;50.758;6.106;2023-06-24T00:58:46;5.78;;;3.80;;
73150;SDS011;61354;50.758;6.106;2023-06-24T01:01:13;6.35;;;4.25;;
73150;SDS011;61354;50.758;6.106;2023-06-24T01:03:39;6.50;;;3.78;;
73150;SDS011;61354;50.758;6.106;2023-06-24T01:06:05;6.95;;;4.30;;
73150;SDS011;61354;50.758;6.106;2023-06-24T01:08:33;6.47;;;4.20;;
73150;SDS011;61354;50.758;6.106;2023-06-24T01:10:59;7.75;;;4.47;;
73150;SDS011;61354;50.758;6.106;2023-06-24T01:13:25;9.48;;;4.43;;
73150;SDS011;61354;50.758;6.106;2023-06-24T01:15:51;6.07;;;4.35;;
73150;SDS011;61354;50.758;6.106;2023-06-24T01:18:33;5.97;;;3.92;;
73150;SDS011;61354;50.758;6.106;2023-06-24T01:35:07;5.93;;;3.72;;
73150;SDS011;61354;50.758;6.106;2023-06-24T01:37:41;5.85;;;3.97;;
73150;SDS011;61354;50.758;6.106;2023-06-24T01:40:10;7.55;;;4.00;;
73150;SDS011;61354;50.758;6.106;2023-06-24T01:42:51;6.75;;;3.97;;
73150;SDS011;61354;50.758;6.106;2023-06-24T01:45:28;7.25;;;4.43;;
73150;SDS011;61354;50.758;6.106;2023-06-24T01:48:11;7.07;;;4.38;;
73150;SDS011;61354;50.758;6.106;2023-06-24T01:50:43;6.25;;;3.97;;
73150;SDS011;61354;50.758;6.106;2023-06-24T01:53:10;6.55;;;4.35;;
73150;SDS011;61354;50.758;6.106;2023-06-24T01:55:39;7.60;;;4.57;;
73150;SDS011;61354;50.758;6.106;2023-06-24T01:58:07;6.18;;;4.35;;
73150;SDS011;61354;50.758;6.106;2023-06-24T02:00:34;6.65;;;4.38;;
73150;SDS011;61354;50.758;6.106;2023-06-24T02:03:00;6.50;;;4.22;;
73150;SDS011;61354;50.758;6.106;2023-06-24T02:05:26;7.55;;;4.13;;
73150;SDS011;61354;50.758;6.106;2023-06-24T02:07:53;8.35;;;4.45;;
73150;SDS011;61354;50.758;6.106;2023-06-24T02:10:22;6.32;;;4.07;;
73150;SDS011;61354;50.758;6.106;2023-06-24T02:12:49;8.02;;;5.28;;
73150;SDS011;61354;50.758;6.106;2023-06-24T02:15:16;7.13;;;4.53;;
73150;SDS011;61354;50.758;6.106;2023-06-24T02:17:43;7.03;;;4.43;;
73150;SDS011;61354;50.758;6.106;2023-06-24T02:20:10;8.30;;;4.70;;
73150;SDS011;61354;50.758;6.106;2023-06-24T02:22:37;7.20;;;4.25;;
73150;SDS011;61354;50.758;6.106;2023-06-24T02:25:04;8.25;;;4.30;;
73150;SDS011;61354;50.758;6.106;2023-06-24T02:27:32;6.45;;;4.50;;
73150;SDS011;61354;50.758;6.106;2023-06-24T02:29:59;6.63;;;4.43;;
73150;SDS011;61354;50.758;6.106;2023-06-24T02:32:25;7.88;;;4.82;;
73150;SDS011;61354;50.758;6.106;2023-06-24T02:34:51;9.02;;;4.70;;
73150;SDS011;61354;50.758;6.106;2023-06-24T02:37:16;7.90;;;4.57;;
73150;SDS011;61354;50.758;6.106;2023-06-24T02:39:42;6.88;;;4.45;;
73150;SDS011;61354;50.758;6.106;2023-06-24T02:42:10;6.97;;;4.88;;
73150;SDS011;61354;50.758;6.106;2023-06-24T02:44:37;6.82;;;4.63;;
73150;SDS011;61354;50.758;6.106;2023-06-24T02:47:04;5.82;;;3.83;;
73150;SDS011;61354;50.758;6.106;2023-06-24T02:49:33;8.63;;;4.75;;
73150;SDS011;61354;50.758;6.106;2023-06-24T02:51:59;7.28;;;4.85;;
73150;SDS011;61354;50.758;6.106;2023-06-24T02:54:25;6.72;;;4.47;;
73150;SDS011;61354;50.758;6.106;2023-06-24T02:56:51;8.32;;;4.70;;
73150;SDS011;61354;50.758;6.106;2023-06-24T02:59:17;6.72;;;4.55;;
73150;SDS011;61354;50.758;6.106;2023-06-24T03:01:47;7.47;;;4.65;;
73150;SDS011;61354;50.758;6.106;2023-06-24T03:04:13;6.50;;;4.50;;
73150;SDS011;61354;50.758;6.106;2023-06-24T03:06:39;8.15;;;4.68;;
73150;SDS011;61354;50.758;6.106;2023-06-24T03:09:06;6.97;;;4.40;;
73150;SDS011;61354;50.758;6.106;2023-06-24T03:11:39;7.70;;;4.55;;
73150;SDS011;61354;50.758;6.106;2023-06-24T03:14:06;7.25;;;4.93;;
73150;SDS011;61354;50.758;6.106;2023-06-24T03:16:31;7.05;;;4.40;;
73150;SDS011;61354;50.758;6.106;2023-06-24T03:18:57;7.80;;;4.68;;
73150;SDS011;61354;50.758;6.106;2023-06-24T03:21:22;7.45;;;5.38;;
73150;SDS011;61354;50.758;6.106;2023-06-24T03:23:53;8.88;;;4.53;;
73150;SDS011;61354;50.758;6.106;2023-06-24T03:26:19;7.03;;;4.55;;
73150;SDS011;61354;50.758;6.106;2023-06-24T03:28:45;9.05;;;4.60;;
73150;SDS011;61354;50.758;6.106;2023-06-24T03:31:11;8.27;;;4.80;;
73150;SDS011;61354;50.758;6.106;2023-06-24T03:33:37;7.15;;;4.45;;
73150;SDS011;61354;50.758;6.106;2023-06-24T03:36:02;7.80;;;4.78;;
73150;SDS011;61354;50.758;6.106;2023-06-24T03:38:28;7.30;;;4.95;;
73150;SDS011;61354;50.758;6.106;2023-06-24T03:40:54;7.28;;;4.57;;
73150;SDS011;61354;50.758;6.106;2023-06-24T03:43:19;8.45;;;5.00;;
73150;SDS011;61354;50.758;6.106;2023-06-24T03:45:45;8.10;;;5.00;;
73150;SDS011;61354;50.758;6.106;2023-06-24T03:48:10;9.40;;;4.43;;
73150;SDS011;61354;50.758;6.106;2023-06-24T03:50:36;7.53;;;4.50;;
73150;SDS011;61354;50.758;6.106;2023-06-24T03:53:02;8.55;;;4.60;;
73150;SDS011;61354;50.758;6.106;2023-06-24T03:55:29;8.25;;;4.90;;
73150;SDS011;61354;50.758;6.106;2023-06-24T03:57:55;7.38;;;4.45;;
73150;SDS011;61354;50.758;6.106;2023-06-24T04:00:20;7.90;;;5.20;;
73150;SDS011;61354;50.758;6.106;2023-06-24T04:02:46;7.13;;;4.45;;
73150;SDS011;61354;50.758;6.106;2023-06-24T04:05:12;7.82;;;5.05;;
73150;SDS011;61354;50.758;6.106;2023-06-24T04:07:37;6.72;;;4.80;;
73150;SDS011;61354;50.758;6.106;2023-06-24T04:10:03;7.32;;;4.28;;
73150;SDS011;61354;50.758;6.106;2023-06-24T04:12:34;8.55;;;4.55;;
73150;SDS011;61354;50.758;6.106;2023-06-24T04:15:02;8.00;;;4.38;;
73150;SDS011;61354;50.758;6.106;2023-06-24T04:17:29;7.28;;;4.57;;
73150;SDS011;61354;50.758;6.106;2023-06-24T04:19:55;6.53;;;4.03;;
73150;SDS011;61354;50.758;6.106;2023-06-24T04:22:21;7.15;;;4.63;;
73150;SDS011;61354;50.758;6.106;2023-06-24T04:24:46;8.73;;;5.40;;
73150;SDS011;61354;50.758;6.106;2023-06-24T04:27:12;7.65;;;4.82;;
73150;SDS011;61354;50.758;6.106;2023-06-24T04:29:37;8.80;;;4.70;;
73150;SDS011;61354;50.758;6.106;2023-06-24T04:32:03;8.38;;;5.07;;
73150;SDS011;61354;50.758;6.106;2023-06-24T04:34:29;11.55;;;5.10;;
73150;SDS011;61354;50.758;6.106;2023-06-24T04:36:54;7.18;;;4.40;;
73150;SDS011;61354;50.758;6.106;2023-06-24T04:39:20;6.85;;;4.53;;
73150;SDS011;61354;50.758;6.106;2023-06-24T04:41:46;7.97;;;4.82;;
73150;SDS011;61354;50.758;6.106;2023-06-24T04:44:12;7.65;;;4.63;;
73150;SDS011;61354;50.758;6.106;2023-06-24T04:46:37;8.90;;;4.55;;
73150;SDS011;61354;50.758;6.106;2023-06-24T04:49:05;7.18;;;4.43;;
73150;SDS011;61354;50.758;6.106;2023-06-24T04:51:31;8.05;;;4.97;;
73150;SDS011;61354;50.758;6.106;2023-06-24T04:53:57;8.30;;;4.93;;
73150;SDS011;61354;50.758;6.106;2023-06-24T04:56:22;7.57;;;4.95;;
73150;SDS011;61354;50.758;6.106;2023-06-24T04:58:48;8.93;;;4.57;;
73150;SDS011;61354;50.758;6.106;2023-06-24T05:01:14;7.30;;;4.22;;
73150;SDS011;61354;50.758;6.106;2023-06-24T05:03:39;7.88;;;5.13;;
73150;SDS011;61354;50.758;6.106;2023-06-24T05:06:05;6.88;;;4.20;;
73150;SDS011;61354;50.758;6.106;2023-06-24T05:08:30;8.93;;;4.75;;
73150;SDS011;61354;50.758;6.106;2023-06-24T05:10:56;9.57;;;5.18;;
73150;SDS011;61354;50.758;6.106;2023-06-24T05:13:22;7.50;;;4.93;;
73150;SDS011;61354;50.758;6.106;2023-06-24T05:15:48;8.38;;;4.75;;
73150;SDS011;61354;50.758;6.106;2023-06-24T05:18:13;8.63;;;5.25;;
73150;SDS011;61354;50.758;6.106;2023-06-24T05:20:39;9.05;;;5.50;;
73150;SDS011;61354;50.758;6.106;2023-06-24T05:23:05;7.60;;;5.25;;
73150;SDS011;61354;50.758;6.106;2023-06-24T05:25:31;9.18;;;5.18;;
73150;SDS011;61354;50.758;6.106;2023-06-24T05:27:57;11.50;;;6.40;;
73150;SDS011;61354;50.758;6.106;2023-06-24T05:30:22;7.15;;;4.88;;
73150;SDS011;61354;50.758;6.106;2023-06-24T05:32:48;7.85;;;4.95;;
73150;SDS011;61354;50.758;6.106;2023-06-24T05:35:14;8.90;;;5.32;;
73150;SDS011;61354;50.758;6.106;2023-06-24T05:37:39;9.48;;;6.15;;
73150;SDS011;61354;50.758;6.106;2023-06-24T05:40:05;10.73;;;5.60;;
73150;SDS011;61354;50.758;6.106;2023-06-24T05:42:32;9.45;;;5.65;;
73150;SDS011;61354;50.758;6.106;2023-06-24T05:44:59;9.73;;;5.50;;
73150;SDS011;61354;50.758;6.106;2023-06-24T05:47:24;10.93;;;6.60;;
73150;SDS011;61354;50.758;6.106;2023-06-24T05:49:50;9.65;;;5.38;;
73150;SDS011;61354;50.758;6.106;2023-06-24T05:52:15;9.20;;;5.13;;
73150;SDS011;61354;50.758;6.106;2023-06-24T05:54:41;10.88;;;5.97;;
73150;SDS011;61354;50.758;6.106;2023-06-24T05:57:06;10.25;;;5.68;;
73150;SDS011;61354;50.758;6.106;2023-06-24T05:59:32;10.95;;;6.07;;
73150;SDS011;61354;50.758;6.106;2023-06-24T06:01:58;9.95;;;5.97;;
73150;SDS011;61354;50.758;6.106;2023-06-24T06:04:24;10.38;;;5.88;;
73150;SDS011;61354;50.758;6.106;2023-06-24T06:06:49;11.13;;;6.35;;
73150;SDS011;61354;50.758;6.106;2023-06-24T06:09:15;9.95;;;6.00;;
73150;SDS011;61354;50.758;6.106;2023-06-24T06:11:41;9.32;;;5.82;;
73150;SDS011;61354;50.758;6.106;2023-06-24T06:14:09;10.90;;;6.35;;
73150;SDS011;61354;50.758;6.106;2023-06-24T06:16:35;10.27;;;6.07;;
73150;SDS011;61354;50.758;6.106;2023-06-24T06:19:00;9.43;;;6.05;;
73150;SDS011;61354;50.758;6.106;2023-06-24T06:21:26;10.35;;;6.45;;
73150;SDS011;61354;50.758;6.106;2023-06-24T06:23:51;11.25;;;6.38;;
73150;SDS011;61354;50.758;6.106;2023-06-24T06:26:17;12.55;;;6.63;;
73150;SDS011;61354;50.758;6.106;2023-06-24T06:28:43;11.68;;;6.70;;
73150;SDS011;61354;50.758;6.106;2023-06-24T06:31:08;10.60;;;6.50;;
73150;SDS011;61354;50.758;6.106;2023-06-24T06:33:34;10.15;;;5.90;;
73150;SDS011;61354;50.758;6.106;2023-06-24T06:35:59;8.95;;;5.80;;
73150;SDS011;61354;50.758;6.106;2023-06-24T06:38:25;9.07;;;5.53;;
73150;SDS011;61354;50.758;6.106;2023-06-24T06:40:50;9.30;;;6.05;;
73150;SDS011;61354;50.758;6.106;2023-06-24T06:43:16;9.80;;;5.57;;
73150;SDS011;61354;50.758;6.106;2023-06-24T06:45:42;9.45;;;5.47;;
73150;SDS011;61354;50.758;6.106;2023-06-24T06:48:07;9.52;;;5.35;;
73150;SDS011;61354;50.758;6.106;2023-06-24T06:50:34;10.07;;;5.63;;
73150;SDS011;61354;50.758;6.106;2023-06-24T06:53:00;11.98;;;6.03;;
73150;SDS011;61354;50.758;6.106;2023-06-24T06:55:26;9.20;;;5.40;;
73150;SDS011;61354;50.758;6.106;2023-06-24T06:57:52;9.93;;;5.68;;
73150;SDS011;61354;50.758;6.106;2023-06-24T07:00:18;11.07;;;5.88;;
73150;SDS011;61354;50.758;6.106;2023-06-24T07:02:43;9.90;;;5.78;;
73150;SDS011;61354;50.758;6.106;2023-06-24T07:05:09;9.45;;;5.63;;
73150;SDS011;61354;50.758;6.106;2023-06-24T07:07:36;10.73;;;6.60;;
73150;SDS011;61354;50.758;6.106;2023-06-24T07:10:03;9.57;;;6.18;;
73150;SDS011;61354;50.758;6.106;2023-06-24T07:12:31;10.90;;;5.97;;
73150;SDS011;61354;50.758;6.106;2023-06-24T07:14:56;11.23;;;6.70;;
73150;SDS011;61354;50.758;6.106;2023-06-24T07:17:22;12.68;;;6.97;;
73150;SDS011;61354;50.758;6.106;2023-06-24T07:19:48;10.70;;;6.47;;
73150;SDS011;61354;50.758;6.106;2023-06-24T07:22:14;9.68;;;6.28;;
73150;SDS011;61354;50.758;6.106;2023-06-24T07:24:40;9.70;;;5.90;;
73150;SDS011;61354;50.758;6.106;2023-06-24T07:27:06;10.13;;;7.13;;
73150;SDS011;61354;50.758;6.106;2023-06-24T07:29:32;11.98;;;6.85;;
73150;SDS011;61354;50.758;6.106;2023-06-24T07:31:57;11.02;;;6.68;;
73150;SDS011;61354;50.758;6.106;2023-06-24T07:34:23;11.23;;;6.43;;
73150;SDS011;61354;50.758;6.106;2023-06-24T07:36:48;13.05;;;7.40;;
73150;SDS011;61354;50.758;6.106;2023-06-24T07:39:16;11.95;;;6.30;;
73150;SDS011;61354;50.758;6.106;2023-06-24T07:41:42;13.55;;;7.63;;
73150;SDS011;61354;50.758;6.106;2023-06-24T07:44:08;11.18;;;6.10;;
73150;SDS011;61354;50.758;6.106;2023-06-24T07:46:33;13.27;;;7.22;;
73150;SDS011;61354;50.758;6.106;2023-06-24T07:48:59;12.77;;;6.78;;
73150;SDS011;61354;50.758;6.106;2023-06-24T07:51:25;11.27;;;6.60;;
73150;SDS011;61354;50.758;6.106;2023-06-24T07:53:52;12.02;;;6.85;;
73150;SDS011;61354;50.758;6.106;2023-06-24T07:56:17;11.25;;;6.28;;
73150;SDS011;61354;50.758;6.106;2023-06-24T07:58:43;12.38;;;7.70;;
73150;SDS011;61354;50.758;6.106;2023-06-24T08:01:08;12.95;;;6.13;;
73150;SDS011;61354;50.758;6.106;2023-06-24T08:03:34;10.98;;;5.93;;
73150;SDS011;61354;50.758;6.106;2023-06-24T08:08:27;10.93;;;6.30;;
73150;SDS011;61354;50.758;6.106;2023-06-24T08:10:53;11.57;;;6.13;;
73150;SDS011;61354;50.758;6.106;2023-06-24T08:13:18;11.57;;;6.32;;
73150;SDS011;61354;50.758;6.106;2023-06-24T08:15:44;15.57;;;7.95;;
73150;SDS011;61354;50.758;6.106;2023-06-24T08:18:10;13.70;;;7.75;;
73150;SDS011;61354;50.758;6.106;2023-06-24T08:20:35;17.85;;;9.18;;
73150;SDS011;61354;50.758;6.106;2023-06-24T08:23:01;14.35;;;8.05;;
73150;SDS011;61354;50.758;6.106;2023-06-24T08:25:26;17.48;;;8.38;;
73150;SDS011;61354;50.758;6.106;2023-06-24T08:27:52;14.18;;;7.70;;
73150;SDS011;61354;50.758;6.106;2023-06-24T08:30:18;13.60;;;7.60;;
73150;SDS011;61354;50.758;6.106;2023-06-24T08:32:43;11.90;;;6.88;;
73150;SDS011;61354;50.758;6.106;2023-06-24T08:35:09;11.77;;;6.25;;
73150;SDS011;61354;50.758;6.106;2023-06-24T08:37:35;12.85;;;7.03;;
73150;SDS011;61354;50.758;6.106;2023-06-24T08:40:02;11.77;;;6.47;;
73150;SDS011;61354;50.758;6.106;2023-06-24T08:42:29;10.55;;;5.75;;
73150;SDS011;61354;50.758;6.106;2023-06-24T08:44:55;8.75;;;4.85;;
73150;SDS011;61354;50.758;6.106;2023-06-24T08:47:21;13.52;;;6.13;;
73150;SDS011;61354;50.758;6.106;2023-06-24T08:49:52;9.15;;;4.80;;
73150;SDS011;61354;50.758;6.106;2023-06-24T08:52:21;9.13;;;5.00;;
73150;SDS011;61354;50.758;6.106;2023-06-24T08:54:51;7.80;;;4.35;;
73150;SDS011;61354;50.758;6.106;2023-06-24T08:57:23;9.95;;;5.25;;
73150;SDS011;61354;50.758;6.106;2023-06-24T08:59:48;8.43;;;4.85;;
73150;SDS011;61354;50.758;6.106;2023-06-24T09:02:14;9.18;;;5.25;;
73150;SDS011;61354;50.758;6.106;2023-06-24T09:04:40;8.63;;;4.50;;
73150;SDS011;61354;50.758;6.106;2023-06-24T09:07:06;7.35;;;4.28;;
73150;SDS011;61354;50.758;6.106;2023-06-24T09:09:31;8.68;;;4.70;;
73150;SDS011;61354;50.758;6.106;2023-06-24T09:11:58;7.88;;;4.50;;
73150;SDS011;61354;50.758;6.106;2023-06-24T09:16:58;7.90;;;3.92;;
73150;SDS011;61354;50.758;6.106;2023-06-24T09:19:28;5.47;;;3.30;;
73150;SDS011;61354;50.758;6.106;2023-06-24T09:22:08;6.68;;;3.90;;
73150;SDS011;61354;50.758;6.106;2023-06-24T09:24:42;6.90;;;3.92;;
73150;SDS011;61354;50.758;6.106;2023-06-24T09:27:12;5.80;;;3.03;;
73150;SDS011;61354;50.758;6.106;2023-06-24T09:32:06;6.93;;;3.58;;
73150;SDS011;61354;50.758;6.106;2023-06-24T09:34:32;5.88;;;2.92;;
73150;SDS011;61354;50.758;6.106;2023-06-24T09:36:58;5.25;;;2.95;;
73150;SDS011;61354;50.758;6.106;2023-06-24T09:39:25;6.47;;;2.78;;
73150;SDS011;61354;50.758;6.106;2023-06-24T09:41:58;5.25;;;2.95;;
73150;SDS011;61354;50.758;6.106;2023-06-24T09:44:26;5.22;;;2.80;;
73150;SDS011;61354;50.758;6.106;2023-06-24T09:46:53;6.25;;;2.70;;
73150;SDS011;61354;50.758;6.106;2023-06-24T09:49:19;5.57;;;3.50;;
73150;SDS011;61354;50.758;6.106;2023-06-24T09:51:45;5.10;;;2.38;;
73150;SDS011;61354;50.758;6.106;2023-06-24T09:54:13;7.55;;;3.08;;
73150;SDS011;61354;50.758;6.106;2023-06-24T09:56:42;4.13;;;2.40;;
73150;SDS011;61354;50.758;6.106;2023-06-24T09:59:11;4.47;;;2.47;;
73150;SDS011;61354;50.758;6.106;2023-06-24T10:01:38;4.72;;;2.60;;
73150;SDS011;61354;50.758;6.106;2023-06-24T10:04:06;5.03;;;2.78;;
73150;SDS011;61354;50.758;6.106;2023-06-24T10:06:32;5.88;;;3.10;;
73150;SDS011;61354;50.758;6.106;2023-06-24T10:08:59;6.63;;;3.20;;
73150;SDS011;61354;50.758;6.106;2023-06-24T10:11:26;4.57;;;2.42;;
73150;SDS011;61354;50.758;6.106;2023-06-24T10:13:52;4.82;;;2.60;;
73150;SDS011;61354;50.758;6.106;2023-06-24T10:16:18;5.10;;;2.65;;
73150;SDS011;61354;50.758;6.106;2023-06-24T10:18:44;5.03;;;2.50;;
73150;SDS011;61354;50.758;6.106;2023-06-24T10:21:10;4.47;;;2.30;;
73150;SDS011;61354;50.758;6.106;2023-06-24T10:23:40;5.60;;;2.63;;
73150;SDS011;61354;50.758;6.106;2023-06-24T10:26:28;4.05;;;2.10;;
73150;SDS011;61354;50.758;6.106;2023-06-24T10:31:51;4.22;;;2.20;;
73150;SDS011;61354;50.758;6.106;2023-06-24T10:42:30;3.28;;;1.85;;
73150;SDS011;61354;50.758;6.106;2023-06-24T10:45:01;3.13;;;1.70;;
73150;SDS011;61354;50.758;6.106;2023-06-24T10:47:39;3.55;;;1.98;;
73150;SDS011;61354;50.758;6.106;2023-06-24T10:50:07;3.33;;;1.88;;
73150;SDS011;61354;50.758;6.106;2023-06-24T10:55:10;3.60;;;1.90;;
73150;SDS011;61354;50.758;6.106;2023-06-24T10:57:38;3.80;;;1.85;;
73150;SDS011;61354;50.758;6.106;2023-06-24T11:00:04;3.45;;;1.90;;
73150;SDS011;61354;50.758;6.106;2023-06-24T11:02:30;3.38;;;1.75;;
73150;SDS011;61354;50.758;6.106;2023-06-24T11:05:00;3.33;;;1.60;;
73150;SDS011;61354;50.758;6.106;2023-06-24T11:07:27;3.55;;;1.58;;
73150;SDS011;61354;50.758;6.106;2023-06-24T11:10:00;4.65;;;2.00;;
73150;SDS011;61354;50.758;6.106;2023-06-24T11:12:30;3.47;;;1.92;;
73150;SDS011;61354;50.758;6.106;2023-06-24T11:14:57;3.60;;;1.90;;
73150;SDS011;61354;50.758;6.106;2023-06-24T11:17:24;3.80;;;2.22;;
73150;SDS011;61354;50.758;6.106;2023-06-24T11:19:51;4.82;;;2.10;;
73150;SDS011;61354;50.758;6.106;2023-06-24T11:22:18;3.15;;;1.67;;
73150;SDS011;61354;50.758;6.106;2023-06-24T11:24:43;3.45;;;1.90;;
73150;SDS011;61354;50.758;6.106;2023-06-24T11:27:09;3.60;;;1.88;;
73150;SDS011;61354;50.758;6.106;2023-06-24T11:29:35;3.05;;;1.80;;
73150;SDS011;61354;50.758;6.106;2023-06-24T11:32:06;3.78;;;1.98;;
73150;SDS011;61354;50.758;6.106;2023-06-24T11:34:32;4.13;;;1.90;;
73150;SDS011;61354;50.758;6.106;2023-06-24T11:36:58;4.70;;;2.00;;
73150;SDS011;61354;50.758;6.106;2023-06-24T11:39:24;3.78;;;2.00;;
73150;SDS011;61354;50.758;6.106;2023-06-24T11:41:51;2.97;;;1.80;;
73150;SDS011;61354;50.758;6.106;2023-06-24T11:44:21;3.17;;;1.75;;
73150;SDS011;61354;50.758;6.106;2023-06-24T11:46:49;5.97;;;1.70;;
73150;SDS011;61354;50.758;6.106;2023-06-24T11:49:14;2.85;;;1.50;;
73150;SDS011;61354;50.758;6.106;2023-06-24T11:51:48;4.68;;;2.10;;
73150;SDS011;61354;50.758;6.106;2023-06-24T11:54:16;4.10;;;2.17;;
73150;SDS011;61354;50.758;6.106;2023-06-24T11:56:43;3.35;;;1.85;;
73150;SDS011;61354;50.758;6.106;2023-06-24T11:59:21;5.78;;;1.92;;
73150;SDS011;61354;50.758;6.106;2023-06-24T12:01:56;3.65;;;1.98;;
73150;SDS011;61354;50.758;6.106;2023-06-24T12:04:29;3.40;;;2.05;;
73150;SDS011;61354;50.758;6.106;2023-06-24T12:06:56;3.42;;;2.08;;
73150;SDS011;61354;50.758;6.106;2023-06-24T12:09:22;4.80;;;1.90;;
73150;SDS011;61354;50.758;6.106;2023-06-24T12:11:48;4.22;;;2.08;;
73150;SDS011;61354;50.758;6.106;2023-06-24T12:14:13;4.57;;;2.78;;
73150;SDS011;61354;50.758;6.106;2023-06-24T12:16:39;3.70;;;1.90;;
73150;SDS011;61354;50.758;6.106;2023-06-24T12:19:08;3.38;;;1.70;;
73150;SDS011;61354;50.758;6.106;2023-06-24T12:21:34;3.58;;;2.10;;
73150;SDS011;61354;50.758;6.106;2023-06-24T12:24:00;3.53;;;2.10;;
73150;SDS011;61354;50.758;6.106;2023-06-24T12:26:26;3.85;;;1.92;;
73150;SDS011;61354;50.758;6.106;2023-06-24T12:28:53;4.10;;;1.92;;
73150;SDS011;61354;50.758;6.106;2023-06-24T12:31:21;4.40;;;1.90;;
73150;SDS011;61354;50.758;6.106;2023-06-24T12:33:47;3.40;;;1.80;;
73150;SDS011;61354;50.758;6.106;2023-06-24T12:36:12;5.00;;;2.25;;
73150;SDS011;61354;50.758;6.106;2023-06-24T12:38:38;3.58;;;2.10;;
73150;SDS011;61354;50.758;6.106;2023-06-24T12:41:03;3.20;;;1.88;;
73150;SDS011;61354;50.758;6.106;2023-06-24T12:43:29;4.10;;;2.25;;
73150;SDS011;61354;50.758;6.106;2023-06-24T12:45:54;4.00;;;1.77;;
73150;SDS011;61354;50.758;6.106;2023-06-24T12:48:20;3.70;;;1.98;;
73150;SDS011;61354;50.758;6.106;2023-06-24T12:50:46;3.78;;;1.98;;
73150;SDS011;61354;50.758;6.106;2023-06-24T12:53:13;5.05;;;2.00;;
73150;SDS011;61354;50.758;6.106;2023-06-24T12:55:40;4.35;;;2.05;;
73150;SDS011;61354;50.758;6.106;2023-06-24T12:58:07;4.40;;;2.00;;
73150;SDS011;61354;50.758;6.106;2023-06-24T13:00:32;4.05;;;2.25;;
73150;SDS011;61354;50.758;6.106;2023-06-24T13:02:58;4.03;;;2.10;;
73150;SDS011;61354;50.758;6.106;2023-06-24T13:05:23;4.65;;;2.17;;
73150;SDS011;61354;50.758;6.106;2023-06-24T13:07:50;4.50;;;2.10;;
73150;SDS011;61354;50.758;6.106;2023-06-24T13:10:15;3.97;;;2.00;;
73150;SDS011;61354;50.758;6.106;2023-06-24T13:12:41;4.65;;;2.20;;
73150;SDS011;61354;50.758;6.106;2023-06-24T13:15:07;3.60;;;2.10;;
73150;SDS011;61354;50.758;6.106;2023-06-24T13:20:00;4.10;;;2.17;;
73150;SDS011;61354;50.758;6.106;2023-06-24T13:22:27;4.45;;;2.10;;
73150;SDS011;61354;50.758;6.106;2023-06-24T13:24:53;4.25;;;2.00;;
73150;SDS011;61354;50.758;6.106;2023-06-24T13:27:18;4.03;;;2.20;;
73150;SDS011;61354;50.758;6.106;2023-06-24T13:29:44;3.60;;;1.92;;
73150;SDS011;61354;50.758;6.106;2023-06-24T13:32:10;4.22;;;2.20;;
73150;SDS011;61354;50.758;6.106;2023-06-24T13:34:35;3.65;;;2.10;;
73150;SDS011;61354;50.758;6.106;2023-06-24T13:37:01;4.13;;;2.03;;
73150;SDS011;61354;50.758;6.106;2023-06-24T13:39:27;5.05;;;2.28;;
73150;SDS011;61354;50.758;6.106;2023-06-24T13:41:53;4.43;;;2.00;;
73150;SDS011;61354;50.758;6.106;2023-06-24T13:44:18;3.55;;;1.80;;
73150;SDS011;61354;50.758;6.106;2023-06-24T13:46:44;5.38;;;2.20;;
73150;SDS011;61354;50.758;6.106;2023-06-24T13:49:10;3.50;;;1.70;;
73150;SDS011;61354;50.758;6.106;2023-06-24T13:51:36;4.57;;;2.10;;
73150;SDS011;61354;50.758;6.106;2023-06-24T13:54:02;3.75;;;1.92;;
73150;SDS011;61354;50.758;6.106;2023-06-24T13:56:28;4.35;;;1.95;;
73150;SDS011;61354;50.758;6.106;2023-06-24T13:58:54;3.83;;;2.00;;
73150;SDS011;61354;50.758;6.106;2023-06-24T14:01:21;4.13;;;2.10;;
73150;SDS011;61354;50.758;6.106;2023-06-24T14:03:47;3.80;;;1.92;;
73150;SDS011;61354;50.758;6.106;2023-06-24T14:06:14;5.55;;;2.00;;
73150;SDS011;61354;50.758;6.106;2023-06-24T14:08:41;3.75;;;1.80;;
73150;SDS011;61354;50.758;6.106;2023-06-24T14:11:07;4.25;;;2.03;;
73150;SDS011;61354;50.758;6.106;2023-06-24T14:13:33;3.40;;;1.95;;
73150;SDS011;61354;50.758;6.106;2023-06-24T14:16:01;4.15;;;2.08;;
73150;SDS011;61354;50.758;6.106;2023-06-24T14:18:27;3.38;;;1.73;;
73150;SDS011;61354;50.758;6.106;2023-06-24T14:20:53;4.10;;;2.00;;
73150;SDS011;61354;50.758;6.106;2023-06-24T14:23:18;3.33;;;2.13;;
73150;SDS011;61354;50.758;6.106;2023-06-24T14:25:44;3.67;;;1.77;;
73150;SDS011;61354;50.758;6.106;2023-06-24T14:28:10;3.95;;;1.92;;
73150;SDS011;61354;50.758;6.106;2023-06-24T14:30:35;3.72;;;1.95;;
73150;SDS011;61354;50.758;6.106;2023-06-24T14:33:01;5.55;;;2.10;;
73150;SDS011;61354;50.758;6.106;2023-06-24T14:35:26;3.97;;;1.88;;
73150;SDS011;61354;50.758;6.106;2023-06-24T14:37:52;5.43;;;2.10;;
73150;SDS011;61354;50.758;6.106;2023-06-24T14:40:17;4.28;;;2.05;;
73150;SDS011;61354;50.758;6.106;2023-06-24T14:42:43;4.22;;;1.92;;
73150;SDS011;61354;50.758;6.106;2023-06-24T14:45:09;3.58;;;1.70;;
73150;SDS011;61354;50.758;6.106;2023-06-24T14:47:35;3.67;;;1.77;;
73150;SDS011;61354;50.758;6.106;2023-06-24T14:50:01;3.45;;;1.63;;
73150;SDS011;61354;50.758;6.106;2023-06-24T14:52:27;3.63;;;1.88;;
73150;SDS011;61354;50.758;6.106;2023-06-24T14:54:53;4.20;;;2.00;;
73150;SDS011;61354;50.758;6.106;2023-06-24T14:57:18;3.47;;;1.52;;
73150;SDS011;61354;50.758;6.106;2023-06-24T14:59:45;3.60;;;1.83;;
73150;SDS011;61354;50.758;6.106;2023-06-24T15:02:11;3.20;;;1.88;;
73150;SDS011;61354;50.758;6.106;2023-06-24T15:04:37;3.75;;;1.92;;
73150;SDS011;61354;50.758;6.106;2023-06-24T15:07:04;4.00;;;2.00;;
73150;SDS011;61354;50.758;6.106;2023-06-24T15:09:29;3.85;;;1.90;;
73150;SDS011;61354;50.758;6.106;2023-06-24T15:11:55;4.00;;;1.90;;
73150;SDS011;61354;50.758;6.106;2023-06-24T15:14:21;3.20;;;1.63;;
73150;SDS011;61354;50.758;6.106;2023-06-24T15:16:46;3.40;;;1.90;;
73150;SDS011;61354;50.758;6.106;2023-06-24T15:19:12;4.20;;;2.38;;
73150;SDS011;61354;50.758;6.106;2023-06-24T15:21:37;3.13;;;1.80;;